createdAt,value
2019-03-18T00:00:19.215Z,0.00
2019-03-18T00:02:47.657Z,0.00
2019-03-18T00:05:16.043Z,0.00
2019-03-18T00:07:44.453Z,0.00
2019-03-18T00:10:12.920Z,0.00
2019-03-18T00:12:41.363Z,0.10
2019-03-18T00:15:10.423Z,0.00
2019-03-18T00:17:38.892Z,0.00
2019-03-18T00:20:09.435Z,0.10
2019-03-18T00:22:37.883Z,0.00
2019-03-18T00:25:08.829Z,0.00
2019-03-18T00:27:37.240Z,0.00
2019-03-18T00:30:08.725Z,0.00
2019-03-18T00:32:37.123Z,0.00
2019-03-18T00:35:05.997Z,0.00
2019-03-18T00:37:34.388Z,0.10
2019-03-18T00:40:03.156Z,0.00
2019-03-18T00:42:31.568Z,0.10
2019-03-18T00:44:59.967Z,0.00
2019-03-18T00:47:28.401Z,0.10
2019-03-18T00:49:56.843Z,0.00
2019-03-18T00:52:25.232Z,0.00
2019-03-18T00:54:53.671Z,0.20
2019-03-18T00:57:22.382Z,0.00
2019-03-18T00:59:50.772Z,0.00
2019-03-18T01:02:19.168Z,0.00
2019-03-18T01:04:47.582Z,0.00
2019-03-18T01:07:16.746Z,0.10
2019-03-18T01:09:45.154Z,0.00
2019-03-18T01:12:13.257Z,0.00
2019-03-18T01:14:41.657Z,0.10
2019-03-18T01:17:10.057Z,0.00
2019-03-18T01:19:38.472Z,0.10
2019-03-18T01:22:06.884Z,0.10
2019-03-18T01:24:35.274Z,0.00
2019-03-18T01:27:03.340Z,0.77
2019-03-18T01:29:31.750Z,0.00
2019-03-18T01:31:59.829Z,0.10
2019-03-18T01:34:31.791Z,0.00
2019-03-18T01:37:00.184Z,0.00
2019-03-18T01:39:28.300Z,0.20
2019-03-18T01:41:56.732Z,0.10
2019-03-18T01:44:25.243Z,0.10
2019-03-18T01:46:53.628Z,0.10
2019-03-18T01:49:22.037Z,0.10
2019-03-18T01:51:50.430Z,0.00
2019-03-18T01:54:18.870Z,0.10
2019-03-18T01:56:47.313Z,0.00
2019-03-18T01:59:15.768Z,0.10
2019-03-18T02:01:44.160Z,0.00
2019-03-18T02:04:12.573Z,0.10
2019-03-18T02:07:00.344Z,0.00
2019-03-18T02:09:28.748Z,0.10
2019-03-18T02:11:57.141Z,0.10
2019-03-18T02:14:25.571Z,0.10
2019-03-18T02:16:53.997Z,0.20
2019-03-18T02:19:22.396Z,0.10
2019-03-18T02:21:50.826Z,0.13
2019-03-18T02:24:18.900Z,0.07
2019-03-18T02:26:47.368Z,0.20
2019-03-18T02:29:15.445Z,0.10
2019-03-18T02:31:43.877Z,0.10
2019-03-18T02:34:11.993Z,0.00
2019-03-18T02:36:40.391Z,0.00
2019-03-18T02:39:08.806Z,0.10
2019-03-18T02:41:37.220Z,0.17
2019-03-18T02:44:05.626Z,0.10
2019-03-18T02:46:34.060Z,0.30
2019-03-18T02:49:02.524Z,0.20
2019-03-18T02:51:30.961Z,0.23
2019-03-18T02:53:59.353Z,0.27
2019-03-18T02:56:27.763Z,0.10
2019-03-18T02:58:56.162Z,0.10
2019-03-18T03:01:24.559Z,0.10
2019-03-18T03:03:52.954Z,0.10
2019-03-18T03:06:21.074Z,0.10
2019-03-18T03:08:49.641Z,0.00
2019-03-18T03:11:17.722Z,0.00
2019-03-18T03:13:46.122Z,0.10
2019-03-18T03:16:26.199Z,0.10
2019-03-18T03:18:44.639Z,0.10
2019-03-18T03:21:13.042Z,0.13
2019-03-18T03:23:41.441Z,0.10
2019-03-18T03:26:09.899Z,0.20
2019-03-18T03:28:38.285Z,0.03
2019-03-18T03:31:06.695Z,0.20
2019-03-18T03:33:34.754Z,0.10
2019-03-18T03:36:03.158Z,0.20
2019-03-18T03:38:31.633Z,0.10
2019-03-18T03:41:00.036Z,0.13
2019-03-18T03:43:28.571Z,0.10
2019-03-18T03:45:56.993Z,0.10
2019-03-18T03:48:25.385Z,0.20
2019-03-18T03:50:53.792Z,0.10
2019-03-18T03:53:22.202Z,0.10
2019-03-18T03:55:50.937Z,0.20
2019-03-18T03:58:19.410Z,0.10
2019-03-18T04:00:47.891Z,0.20
2019-03-18T04:03:16.380Z,0.10
2019-03-18T04:05:44.854Z,0.10
2019-03-18T04:08:13.293Z,0.20
2019-03-18T04:10:41.680Z,0.20
2019-03-18T04:13:10.121Z,0.20
2019-03-18T04:15:38.539Z,0.10
2019-03-18T04:18:06.964Z,0.13
2019-03-18T04:20:35.363Z,0.00
2019-03-18T04:26:44.642Z,0.10
2019-03-18T04:29:13.021Z,0.20
2019-03-18T04:31:41.422Z,0.10
2019-03-18T04:34:09.815Z,0.10
2019-03-18T04:36:38.288Z,0.13
2019-03-18T04:39:07.150Z,0.00
2019-03-18T04:41:35.554Z,0.20
2019-03-18T04:44:03.953Z,0.20
2019-03-18T04:46:32.032Z,0.10
2019-03-18T04:49:00.465Z,0.20
2019-03-18T04:51:29.170Z,0.10
2019-03-18T04:53:57.645Z,0.10
2019-03-18T04:56:26.051Z,0.20
2019-03-18T04:58:54.440Z,0.10
2019-03-18T05:01:22.852Z,0.00
2019-03-18T05:03:51.248Z,0.10
2019-03-18T05:06:19.657Z,0.10
2019-03-18T05:08:47.726Z,0.10
2019-03-18T05:11:16.164Z,0.17
2019-03-18T05:13:44.678Z,0.20
2019-03-18T05:16:12.786Z,0.10
2019-03-18T05:18:41.198Z,0.17
2019-03-18T05:21:09.692Z,0.20
2019-03-18T05:23:38.084Z,0.17
2019-03-18T05:26:06.495Z,0.10
2019-03-18T05:28:34.892Z,0.13
2019-03-18T05:31:03.354Z,0.10
2019-03-18T05:33:31.752Z,0.20
2019-03-18T05:36:00.188Z,0.10
2019-03-18T05:38:28.639Z,0.20
2019-03-18T05:40:57.116Z,0.20
2019-03-18T05:43:25.532Z,0.20
2019-03-18T05:45:53.929Z,0.20
2019-03-18T05:48:22.328Z,0.30
2019-03-18T05:50:50.762Z,0.10
2019-03-18T05:53:19.175Z,0.20
2019-03-18T05:55:47.566Z,0.20
2019-03-18T05:58:16.137Z,0.30
2019-03-18T06:00:44.596Z,0.13
2019-03-18T06:03:13.013Z,0.20
2019-03-18T06:05:41.410Z,0.30
2019-03-18T06:08:11.579Z,0.13
2019-03-18T06:10:40.082Z,0.17
2019-03-18T06:13:08.524Z,0.30
2019-03-18T06:15:40.013Z,0.20
2019-03-18T06:18:08.093Z,0.27
2019-03-18T06:20:36.489Z,0.30
2019-03-18T06:23:05.537Z,0.30
2019-03-18T06:25:33.917Z,0.30
2019-03-18T06:28:21.661Z,0.50
2019-03-18T06:30:50.062Z,0.20
2019-03-18T06:33:18.464Z,0.20
2019-03-18T06:35:46.867Z,0.20
2019-03-18T06:38:15.397Z,0.27
2019-03-18T06:40:43.790Z,0.30
2019-03-18T06:43:12.205Z,0.30
2019-03-18T06:45:40.612Z,0.20
2019-03-18T06:48:09.338Z,0.70
2019-03-18T06:50:37.912Z,0.60
2019-03-18T06:53:06.321Z,0.43
2019-03-18T06:55:34.392Z,0.60
2019-03-18T06:58:02.870Z,0.37
2019-03-18T07:00:31.347Z,0.40
2019-03-18T07:03:05.456Z,0.60
2019-03-18T07:05:33.853Z,0.30
2019-03-18T07:08:02.261Z,0.20
2019-03-18T07:10:30.661Z,0.40
2019-03-18T07:12:59.069Z,0.40
2019-03-18T07:15:27.504Z,0.30
2019-03-18T07:17:56.015Z,0.40
2019-03-18T07:20:24.596Z,0.30
2019-03-18T07:22:53.000Z,0.23
2019-03-18T07:25:21.396Z,0.20
2019-03-18T07:27:49.812Z,0.10
2019-03-18T07:30:18.211Z,0.20
2019-03-18T07:32:46.621Z,0.20
2019-03-18T07:35:15.079Z,0.10
2019-03-18T07:37:43.481Z,0.20
2019-03-18T07:40:13.718Z,0.10
2019-03-18T07:42:42.139Z,0.20
2019-03-18T07:45:29.870Z,0.20
2019-03-18T07:47:58.340Z,0.20
2019-03-18T07:50:26.416Z,0.20
2019-03-18T07:52:54.821Z,0.30
2019-03-18T07:55:23.223Z,0.30
2019-03-18T07:57:51.629Z,0.20
2019-03-18T08:00:20.016Z,0.20
2019-03-18T08:02:48.710Z,0.10
2019-03-18T08:05:17.084Z,0.30
2019-03-18T08:07:45.168Z,1.00
2019-03-18T08:10:14.344Z,0.23
2019-03-18T08:12:42.742Z,0.30
2019-03-18T08:15:12.486Z,0.20
2019-03-18T08:17:40.992Z,0.13
2019-03-18T08:20:10.904Z,0.10
2019-03-18T08:22:39.385Z,0.40
2019-03-18T08:25:09.118Z,0.20
2019-03-18T08:27:37.525Z,0.20
2019-03-18T08:30:10.049Z,0.27
2019-03-18T08:32:38.478Z,0.20
2019-03-18T08:35:06.941Z,0.20
2019-03-18T08:37:35.544Z,0.20
2019-03-18T08:40:06.277Z,0.20
2019-03-18T08:42:34.685Z,0.40
2019-03-18T08:45:03.547Z,0.30
2019-03-18T08:47:31.995Z,0.30
2019-03-18T08:50:00.409Z,0.50
2019-03-18T08:52:28.973Z,0.50
2019-03-18T08:54:57.448Z,0.30
2019-03-18T08:57:25.845Z,0.43
2019-03-18T08:59:54.097Z,0.20
2019-03-18T09:02:22.874Z,0.40
2019-03-18T09:04:51.277Z,0.57
2019-03-18T09:07:19.679Z,0.50
2019-03-18T09:09:48.077Z,0.40
2019-03-18T09:12:16.479Z,0.20
2019-03-18T09:14:44.880Z,0.50
2019-03-18T09:17:13.341Z,0.50
2019-03-18T09:19:41.849Z,0.40
2019-03-18T09:22:10.255Z,0.30
2019-03-18T09:24:38.662Z,0.20
2019-03-18T09:27:07.090Z,0.60
2019-03-18T09:29:35.564Z,0.30
2019-03-18T09:32:03.700Z,1.07
2019-03-18T09:34:32.172Z,0.40
2019-03-18T09:37:00.232Z,0.50
2019-03-18T09:39:28.921Z,0.30
2019-03-18T09:41:57.019Z,0.40
2019-03-18T09:44:25.563Z,0.27
2019-03-18T09:46:54.120Z,0.30
2019-03-18T09:49:22.805Z,0.40
2019-03-18T09:51:51.224Z,0.40
2019-03-18T09:54:19.321Z,0.30
2019-03-18T09:56:47.769Z,0.40
2019-03-18T09:59:16.354Z,0.20
2019-03-18T10:01:44.756Z,0.40
2019-03-18T10:04:13.160Z,0.40
2019-03-18T10:06:41.561Z,0.42
2019-03-18T10:09:09.972Z,0.40
2019-03-18T10:11:38.381Z,0.50
2019-03-18T10:14:07.454Z,0.30
2019-03-18T10:16:35.957Z,0.30
2019-03-18T10:19:04.084Z,0.20
2019-03-18T10:21:32.667Z,0.15
2019-03-18T10:24:01.136Z,0.37
2019-03-18T10:26:29.542Z,0.30
2019-03-18T10:28:57.707Z,0.20
2019-03-18T10:31:26.119Z,0.10
2019-03-18T10:33:56.666Z,0.30
2019-03-18T10:36:25.142Z,0.10
2019-03-18T10:38:53.553Z,0.20
2019-03-18T10:41:21.969Z,0.20
2019-03-18T10:43:50.370Z,0.20
2019-03-18T10:46:18.785Z,0.13
2019-03-18T10:48:47.193Z,0.20
2019-03-18T10:51:15.620Z,0.20
2019-03-18T10:53:44.708Z,0.20
2019-03-18T10:56:12.829Z,0.20
2019-03-18T10:58:41.404Z,0.17
2019-03-18T11:01:10.238Z,0.40
2019-03-18T11:03:39.097Z,0.20
2019-03-18T11:06:07.752Z,0.35
2019-03-18T11:08:35.896Z,0.10
2019-03-18T11:11:04.752Z,0.20
2019-03-18T11:13:33.192Z,0.20
2019-03-18T11:16:01.606Z,0.10
2019-03-18T11:18:29.978Z,0.20
2019-03-18T11:20:58.748Z,0.13
2019-03-18T11:23:27.178Z,0.20
2019-03-18T11:25:55.589Z,1.02
2019-03-18T11:28:23.660Z,0.28
2019-03-18T11:30:51.743Z,0.40
2019-03-18T11:33:24.555Z,0.10
2019-03-18T11:35:55.604Z,0.20
2019-03-18T11:38:23.184Z,0.20
2019-03-18T11:40:51.674Z,0.20
2019-03-18T11:43:20.110Z,0.20
2019-03-18T11:45:48.333Z,0.30
2019-03-18T11:48:16.813Z,0.60
2019-03-18T11:50:45.204Z,0.30
2019-03-18T11:53:14.789Z,0.20
2019-03-18T11:55:43.069Z,0.30
2019-03-18T11:58:11.149Z,0.47
2019-03-18T12:00:39.215Z,0.20
2019-03-18T12:03:07.299Z,0.30
2019-03-18T12:05:35.376Z,0.30
2019-03-18T12:08:03.876Z,0.45
2019-03-18T12:10:32.272Z,0.23
2019-03-18T12:13:00.680Z,0.45
2019-03-18T12:15:29.073Z,0.40
2019-03-18T12:17:57.561Z,0.28
2019-03-18T12:20:26.170Z,0.33
2019-03-18T12:22:54.313Z,0.20
2019-03-18T12:25:22.434Z,0.60
2019-03-18T12:27:50.846Z,0.33
2019-03-18T12:30:20.469Z,0.20
2019-03-18T12:32:48.966Z,0.30
2019-03-18T12:35:17.100Z,0.30
2019-03-18T12:37:45.584Z,0.37
2019-03-18T12:40:17.069Z,0.40
2019-03-18T12:42:45.740Z,0.10
2019-03-18T12:45:15.381Z,0.40
2019-03-18T12:47:43.810Z,0.20
2019-03-18T12:50:16.948Z,0.10
2019-03-18T12:52:45.120Z,0.30
2019-03-18T12:55:13.953Z,0.15
2019-03-18T12:57:42.359Z,0.10
2019-03-18T13:00:16.795Z,0.30
2019-03-18T13:02:45.202Z,0.30
2019-03-18T13:05:13.886Z,0.20
2019-03-18T13:07:42.307Z,0.20
2019-03-18T13:10:21.259Z,0.10
2019-03-18T13:12:48.700Z,0.17
2019-03-18T13:15:36.403Z,0.40
2019-03-18T13:18:05.116Z,0.40
2019-03-18T13:20:33.522Z,0.20
2019-03-18T13:23:01.609Z,0.35
2019-03-18T13:25:29.688Z,0.40
2019-03-18T13:27:57.765Z,0.30
2019-03-18T13:30:25.846Z,0.40
2019-03-18T13:32:53.920Z,0.45
2019-03-18T13:35:21.995Z,0.60
2019-03-18T13:37:50.077Z,0.53
2019-03-18T13:40:18.623Z,0.40
2019-03-18T13:42:47.098Z,0.40
2019-03-18T13:45:19.197Z,0.35
2019-03-18T13:47:47.609Z,0.40
2019-03-18T13:50:16.401Z,0.20
2019-03-18T13:52:44.489Z,0.40
2019-03-18T13:55:18.653Z,0.30
2019-03-18T13:57:47.080Z,0.40
2019-03-18T14:00:22.858Z,0.30
2019-03-18T14:02:51.334Z,0.40
2019-03-18T14:05:19.801Z,0.40
2019-03-18T14:07:59.565Z,0.37
2019-03-18T14:10:19.954Z,0.53
2019-03-18T14:13:07.356Z,0.30
2019-03-18T14:15:35.752Z,0.30
2019-03-18T14:18:04.171Z,0.40
2019-03-18T14:20:32.573Z,0.40
2019-03-18T14:23:00.974Z,0.37
2019-03-18T14:25:29.368Z,0.40
2019-03-18T14:27:59.211Z,0.40
2019-03-18T14:30:27.621Z,0.40
2019-03-18T14:32:56.022Z,0.30
2019-03-18T14:35:24.434Z,0.60
2019-03-18T14:37:52.830Z,0.40
2019-03-18T14:40:21.581Z,0.57
2019-03-18T14:42:49.985Z,0.42
2019-03-18T14:45:20.400Z,0.30
2019-03-18T14:47:48.880Z,0.20
2019-03-18T14:50:18.143Z,0.40
2019-03-18T14:52:46.622Z,0.30
2019-03-18T14:55:20.870Z,0.20
2019-03-18T14:57:49.296Z,0.37
2019-03-18T15:00:30.291Z,0.20
2019-03-18T15:02:58.770Z,0.28
2019-03-18T15:05:27.184Z,0.28
2019-03-18T15:07:55.264Z,0.37
2019-03-18T15:10:24.882Z,0.30
2019-03-18T15:12:53.284Z,0.42
2019-03-18T15:15:21.395Z,0.30
2019-03-18T15:17:49.796Z,0.23
2019-03-18T15:20:20.538Z,0.20
2019-03-18T15:22:48.608Z,0.20
2019-03-18T15:25:19.804Z,0.30
2019-03-18T15:27:48.288Z,0.30
2019-03-18T15:30:20.456Z,0.40
2019-03-18T15:32:48.928Z,0.40
2019-03-18T15:35:36.674Z,0.40
2019-03-18T15:38:05.068Z,0.30
2019-03-18T15:40:33.276Z,0.50
2019-03-18T15:43:01.677Z,0.30
2019-03-18T15:45:30.080Z,0.35
2019-03-18T15:47:58.494Z,0.30
2019-03-18T15:50:26.944Z,0.20
2019-03-18T15:52:55.344Z,0.40
2019-03-18T15:55:24.640Z,0.30
2019-03-18T15:57:53.319Z,0.23
2019-03-18T16:00:23.224Z,0.40
2019-03-18T16:02:51.686Z,0.70
2019-03-18T16:05:20.169Z,1.57
2019-03-18T16:07:48.300Z,2.00
2019-03-18T16:10:17.745Z,0.87
2019-03-18T16:12:45.818Z,0.40
2019-03-18T16:15:15.897Z,0.60
2019-03-18T16:17:44.305Z,0.40
2019-03-18T16:20:13.930Z,0.60
2019-03-18T16:22:42.321Z,1.13
2019-03-18T16:25:11.475Z,0.67
2019-03-18T16:27:39.945Z,0.60
2019-03-18T16:30:16.207Z,0.40
2019-03-18T16:32:44.665Z,0.40
2019-03-18T16:35:16.172Z,0.50
2019-03-18T16:37:44.726Z,0.80
2019-03-18T16:40:17.469Z,0.50
2019-03-18T16:42:46.013Z,0.40
2019-03-18T16:45:18.566Z,0.80
2019-03-18T16:47:46.991Z,0.43
2019-03-18T16:50:24.486Z,0.80
2019-03-18T16:52:52.885Z,0.53
2019-03-18T16:55:21.359Z,0.53
2019-03-18T16:57:50.032Z,0.40
2019-03-18T17:00:37.805Z,0.40
2019-03-18T17:03:06.252Z,0.30
2019-03-18T17:05:34.331Z,0.47
2019-03-18T17:08:02.727Z,0.30
2019-03-18T17:10:31.226Z,0.33
2019-03-18T17:13:00.512Z,0.70
2019-03-18T17:15:28.965Z,0.50
2019-03-18T17:17:57.405Z,0.47
2019-03-18T17:20:25.826Z,0.70
2019-03-18T17:22:53.898Z,0.50
2019-03-18T17:25:30.451Z,0.80
2019-03-18T17:27:58.846Z,0.70
2019-03-18T17:30:27.124Z,0.60
2019-03-18T17:32:55.686Z,0.90
2019-03-18T17:35:24.103Z,0.77
2019-03-18T17:37:52.492Z,0.80
2019-03-18T17:40:21.447Z,0.70
2019-03-18T17:42:49.847Z,0.50
2019-03-18T17:45:18.797Z,0.60
2019-03-18T17:47:47.217Z,0.60
2019-03-18T17:50:18.478Z,0.60
2019-03-18T17:52:46.870Z,0.30
2019-03-18T17:55:14.969Z,0.33
2019-03-18T17:57:43.373Z,0.50
2019-03-18T18:00:15.839Z,0.40
2019-03-18T18:02:44.312Z,0.53
2019-03-18T18:05:12.754Z,0.70
2019-03-18T18:07:44.050Z,0.60
2019-03-18T18:10:12.517Z,0.80
2019-03-18T18:12:40.920Z,0.80
2019-03-18T18:15:09.768Z,0.67
2019-03-18T18:17:38.175Z,0.77
2019-03-18T18:20:09.223Z,1.00
2019-03-18T18:22:37.632Z,1.33
2019-03-18T18:25:08.821Z,1.23
2019-03-18T18:27:37.235Z,0.87
2019-03-18T18:30:18.860Z,0.83
2019-03-18T18:32:47.543Z,0.90
2019-03-18T18:35:15.945Z,1.00
2019-03-18T18:37:44.421Z,0.90
2019-03-18T18:40:15.527Z,1.20
2019-03-18T18:42:43.998Z,1.10
2019-03-18T18:45:13.437Z,1.20
2019-03-18T18:47:41.845Z,1.10
2019-03-18T18:50:11.776Z,1.07
2019-03-18T18:52:40.516Z,0.90
2019-03-18T18:55:13.333Z,0.80
2019-03-18T18:57:41.812Z,0.90
2019-03-18T19:00:15.460Z,1.00
2019-03-18T19:02:43.989Z,1.10
2019-03-18T19:05:14.639Z,0.90
2019-03-18T19:07:43.676Z,1.03
2019-03-18T19:10:17.311Z,1.00
2019-03-18T19:12:45.788Z,1.10
2019-03-18T19:17:50.147Z,1.00
2019-03-18T19:20:30.717Z,1.13
2019-03-18T19:22:58.803Z,0.90
2019-03-18T19:25:26.859Z,1.00
2019-03-18T19:27:55.265Z,1.67
2019-03-18T19:30:24.268Z,1.13
2019-03-18T19:32:52.398Z,1.43
2019-03-18T19:35:20.799Z,1.20
2019-03-18T19:37:49.287Z,1.50
2019-03-18T19:40:25.226Z,1.27
2019-03-18T19:42:53.699Z,1.40
2019-03-18T19:45:22.103Z,1.23
2019-03-18T19:47:52.907Z,0.87
2019-03-18T19:50:21.822Z,1.27
2019-03-18T19:52:49.902Z,1.53
2019-03-18T19:55:18.367Z,1.60
2019-03-18T19:57:46.779Z,1.10
2019-03-18T20:00:26.828Z,1.20
2019-03-18T20:02:55.221Z,0.90
2019-03-18T20:05:23.622Z,1.03
2019-03-18T20:07:52.020Z,1.03
2019-03-18T20:10:21.461Z,1.23
2019-03-18T20:12:49.994Z,1.33
2019-03-18T20:15:19.589Z,1.33
2019-03-18T20:17:48.075Z,1.30
2019-03-18T20:20:17.910Z,1.27
2019-03-18T20:22:46.302Z,1.37
2019-03-18T20:25:14.944Z,1.73
2019-03-18T20:27:43.342Z,1.10
2019-03-18T20:30:31.090Z,1.37
2019-03-18T20:32:59.211Z,1.27
2019-03-18T20:35:27.669Z,1.87
2019-03-18T20:37:56.101Z,1.30
2019-03-18T20:40:24.491Z,1.57
2019-03-18T20:42:52.932Z,1.17
2019-03-18T20:45:24.407Z,1.43
2019-03-18T20:47:52.856Z,1.70
2019-03-18T20:50:22.849Z,1.53
2019-03-18T20:52:51.015Z,1.57
2019-03-18T20:55:19.438Z,1.70
2019-03-18T20:57:47.836Z,1.53
2019-03-18T21:00:18.552Z,1.50
2019-03-18T21:02:47.017Z,1.30
2019-03-18T21:05:15.468Z,1.30
2019-03-18T21:07:43.915Z,2.07
2019-03-18T21:10:31.734Z,1.90
2019-03-18T21:13:00.140Z,1.67
2019-03-18T21:15:28.573Z,1.90
2019-03-18T21:17:57.037Z,1.43
2019-03-18T21:20:27.382Z,1.50
2019-03-18T21:22:55.772Z,1.63
2019-03-18T21:25:24.183Z,1.70
2019-03-18T21:27:52.586Z,1.40
2019-03-18T21:30:21.942Z,1.10
2019-03-18T21:32:50.514Z,1.43
2019-03-18T21:35:18.964Z,1.20
2019-03-18T21:37:47.035Z,1.77
2019-03-18T21:40:16.711Z,1.60
2019-03-18T21:42:45.167Z,1.23
2019-03-18T21:45:23.424Z,1.23
2019-03-18T21:47:51.835Z,1.63
2019-03-18T21:50:20.238Z,1.60
2019-03-18T21:52:48.654Z,1.90
2019-03-18T21:55:17.439Z,1.50
2019-03-18T21:57:45.901Z,1.87
2019-03-18T22:00:15.267Z,1.37
2019-03-18T22:02:43.667Z,1.73
2019-03-18T22:05:12.142Z,1.67
2019-03-18T22:07:40.540Z,1.80
2019-03-18T22:10:13.788Z,1.87
2019-03-18T22:12:42.188Z,1.57
2019-03-18T22:15:13.150Z,1.43
2019-03-18T22:17:41.552Z,1.40
2019-03-18T22:20:17.942Z,1.50
2019-03-18T22:22:46.016Z,1.97
2019-03-18T22:25:14.585Z,1.87
2019-03-18T22:27:42.648Z,1.90
2019-03-18T22:30:18.145Z,1.47
2019-03-18T22:32:46.818Z,1.70
2019-03-18T22:35:15.651Z,1.97
2019-03-18T22:37:43.730Z,1.80
2019-03-18T22:40:14.552Z,1.67
2019-03-18T22:42:42.679Z,1.73
2019-03-18T22:45:12.584Z,1.97
2019-03-18T22:47:41.015Z,1.30
2019-03-18T22:50:13.624Z,1.90
2019-03-18T22:52:42.015Z,1.50
2019-03-18T22:55:11.553Z,1.70
2019-03-18T22:57:39.627Z,1.30
2019-03-18T23:00:20.445Z,1.27
2019-03-18T23:02:48.579Z,1.57
2019-03-18T23:05:17.057Z,1.50
2019-03-18T23:07:45.454Z,1.70
2019-03-18T23:10:13.927Z,1.60
2019-03-18T23:12:42.313Z,1.40
2019-03-18T23:15:10.709Z,1.43
2019-03-18T23:17:39.177Z,1.30
2019-03-18T23:20:08.926Z,1.40
2019-03-18T23:22:37.012Z,1.70
2019-03-18T23:25:07.830Z,1.20
2019-03-18T23:27:36.833Z,1.33
2019-03-18T23:30:10.896Z,1.30
2019-03-18T23:32:39.289Z,1.73
2019-03-18T23:35:07.831Z,1.13
2019-03-18T23:37:36.235Z,1.80
2019-03-18T23:40:05.572Z,1.60
2019-03-18T23:42:33.996Z,1.77
2019-03-18T23:45:02.402Z,1.63
2019-03-18T23:47:30.823Z,1.50
2019-03-18T23:49:59.229Z,1.40
2019-03-18T23:52:27.986Z,1.47
2019-03-18T23:54:56.481Z,1.80
2019-03-18T23:57:24.897Z,1.70
2019-03-18T23:59:53.369Z,1.97
